Heath, Kentucky
Current Conditions -  °F | °C
As of 9:53 PM on Sunday 25 Jan 2015 (Local Time) from KPAH Reporting Station
Overcast Overcast  
Wind Chill: 28°   Ceiling: 800
Heat Index: 38°   Visibility: 7mi
Dew Point: 35°   Wind: 18mph
Humidity: 89%   Direction: 340°NNW
Pressure: 29.82"   Gusts: 24mph
Location:  37.0919°N, 88.7716°W
Report Text: KPAH 260353Z 34016G21KT 7SM OVC008 03/02 A2982 RMK AO2 SLP100 T00330017
Loading
Personal Weather Stations






























Interactive Weather Map New forecast layout! Learn more

10-Day Weather Forecast

Advertisements
Track Severe Weather on mobile